Time;durP1;ratioP1;P1;durP2;ratioP2;P2;SDS_P1;SDS_P2;PMS_P1;PMS_P2;Temp;Humidity;BMP_temperature;BMP_pressure;BME280_temperature;BME280_humidity;BME280_pressure;Samples;Min_cycle;Max_cycle;Signal;HPM_P1;HPM_P2
2021/03/02 00:01:04;;;;;;;15.07;9.55;;;4.10;99.90;;;;;;5054839;28;20100;-69
2021/03/02 00:03:32;;;;;;;14.23;10.88;;;4.10;99.90;;;;;;5055132;28;20025;-69
2021/03/02 00:05:59;;;;;;;14.05;9.85;;;4.10;99.90;;;;;;5055958;28;20029;-68
2021/03/02 00:08:25;;;;;;;16.80;10.45;;;4.10;99.90;;;;;;5054808;28;20436;-68
2021/03/02 00:10:50;;;;;;;14.68;9.65;;;4.00;99.90;;;;;;5055893;28;20032;-69
2021/03/02 00:13:16;;;;;;;11.48;9.50;;;4.10;99.90;;;;;;5054196;28;20373;-69
2021/03/02 00:15:42;;;;;;;16.23;10.30;;;4.10;99.90;;;;;;5054126;28;20021;-69
2021/03/02 00:18:10;;;;;;;16.02;10.15;;;4.00;99.90;;;;;;5055095;28;20468;-69
2021/03/02 00:20:37;;;;;;;14.43;9.50;;;4.00;99.90;;;;;;5054733;28;20025;-69
2021/03/02 00:23:07;;;;;;;13.32;10.38;;;4.00;99.90;;;;;;5053681;28;20439;-68
2021/03/02 00:25:36;;;;;;;14.23;9.60;;;3.90;99.90;;;;;;5055406;28;20387;-68
2021/03/02 00:28:06;;;;;;;13.90;9.40;;;3.90;99.90;;;;;;5054622;28;20032;-68
2021/03/02 00:30:35;;;;;;;16.00;9.95;;;3.90;99.90;;;;;;5054746;28;20021;-69
2021/03/02 00:33:03;;;;;;;12.07;9.48;;;3.90;99.90;;;;;;5054758;28;20024;-68
2021/03/02 00:35:29;;;;;;;17.20;8.85;;;3.90;99.90;;;;;;5059553;28;20040;-68
2021/03/02 00:37:54;;;;;;;12.93;9.02;;;3.80;99.90;;;;;;5062670;28;20021;-68
2021/03/02 00:40:21;;;;;;;17.98;10.48;;;3.80;99.90;;;;;;5055845;28;20021;-69
2021/03/02 00:42:46;;;;;;;10.55;8.55;;;3.80;99.90;;;;;;5054862;28;20092;-68
2021/03/02 00:45:13;;;;;;;12.50;9.65;;;3.70;99.90;;;;;;5056250;28;20052;-69
2021/03/02 00:47:38;;;;;;;11.75;8.35;;;3.70;99.90;;;;;;5057310;28;20029;-69
2021/03/02 00:50:06;;;;;;;13.02;9.55;;;3.70;99.90;;;;;;5057158;28;20087;-69
2021/03/02 00:52:32;;;;;;;15.93;10.50;;;3.70;99.90;;;;;;5060651;28;20046;-69
2021/03/02 00:54:57;;;;;;;11.38;8.52;;;3.60;99.90;;;;;;5058365;28;20033;-68
2021/03/02 00:57:23;;;;;;;13.10;8.80;;;3.60;99.90;;;;;;5059046;28;20029;-69
2021/03/02 00:59:48;;;;;;;14.48;8.90;;;3.70;99.90;;;;;;5059919;28;20040;-68
2021/03/02 01:02:14;;;;;;;15.23;9.52;;;3.70;99.90;;;;;;5063349;28;20032;-68
2021/03/02 01:04:40;;;;;;;15.40;8.98;;;3.70;99.90;;;;;;5065545;28;20055;-69
2021/03/02 01:07:05;;;;;;;12.02;9.30;;;3.60;99.90;;;;;;5071209;28;20055;-69
2021/03/02 01:09:31;;;;;;;13.35;8.38;;;3.60;99.90;;;;;;5067619;28;20144;-69
2021/03/02 01:11:57;;;;;;;12.05;8.68;;;3.60;99.90;;;;;;5059405;28;20037;-69
2021/03/02 01:14:23;;;;;;;11.68;9.27;;;3.60;99.90;;;;;;5054788;28;20483;-69
2021/03/02 01:16:49;;;;;;;14.73;10.25;;;3.50;99.90;;;;;;5054851;28;20036;-69
2021/03/02 01:19:15;;;;;;;14.25;8.90;;;3.50;99.90;;;;;;5054416;28;20025;-68
2021/03/02 01:21:41;;;;;;;13.25;9.60;;;3.40;99.90;;;;;;5054153;28;20439;-69
2021/03/02 01:24:07;;;;;;;11.57;9.00;;;3.50;99.90;;;;;;5052429;28;20047;-69
2021/03/02 01:26:32;;;;;;;15.48;10.00;;;3.40;99.90;;;;;;5053421;28;20025;-69
2021/03/02 01:28:58;;;;;;;12.25;8.27;;;3.30;99.90;;;;;;5052532;28;20024;-70
2021/03/02 01:31:25;;;;;;;12.52;8.70;;;3.30;99.90;;;;;;5053511;28;20056;-68
2021/03/02 01:33:50;;;;;;;16.58;8.75;;;3.30;99.90;;;;;;5052993;28;20025;-68
2021/03/02 01:36:16;;;;;;;11.20;8.85;;;3.20;99.90;;;;;;5053284;28;20499;-69
2021/03/02 01:38:42;;;;;;;11.93;8.77;;;3.20;99.90;;;;;;5053285;28;20028;-69
2021/03/02 01:41:07;;;;;;;13.23;9.82;;;3.20;99.90;;;;;;5053143;28;20386;-69
2021/03/02 01:43:33;;;;;;;14.40;9.13;;;3.20;99.90;;;;;;5052989;28;20104;-69
2021/03/02 01:45:59;;;;;;;12.25;9.43;;;3.20;99.90;;;;;;5053171;28;20033;-68
2021/03/02 01:48:24;;;;;;;13.98;9.60;;;3.20;99.90;;;;;;5053105;28;20028;-69
2021/03/02 01:50:50;;;;;;;15.55;10.23;;;3.10;99.90;;;;;;5053221;28;20021;-68
2021/03/02 01:53:15;;;;;;;15.80;10.23;;;3.00;99.90;;;;;;5052545;28;20060;-68
2021/03/02 01:55:41;;;;;;;14.90;9.13;;;3.00;99.90;;;;;;5053906;28;20067;-68
2021/03/02 01:58:07;;;;;;;12.20;8.85;;;3.00;99.90;;;;;;5053183;28;20037;-68
2021/03/02 02:00:35;;;;;;;15.57;10.13;;;3.20;99.90;;;;;;5053417;28;20477;-69
2021/03/02 02:03:21;;;;;;;13.43;10.30;;;3.10;99.90;;;;;;5052732;28;20051;-69
2021/03/02 02:05:51;;;;;;;10.40;8.63;;;3.10;99.90;;;;;;5052806;28;20024;-69
2021/03/02 02:08:22;;;;;;;11.98;10.02;;;3.10;99.90;;;;;;5052875;28;20021;-68
2021/03/02 02:11:18;;;;;;;13.05;9.18;;;3.20;99.90;;;;;;5053283;28;20427;-69
2021/03/02 02:13:49;;;;;;;15.25;11.38;;;3.20;99.90;;;;;;5053165;28;20364;-68
2021/03/02 02:16:16;;;;;;;14.82;10.18;;;3.10;99.90;;;;;;5053575;28;20025;-69
2021/03/02 02:18:43;;;;;;;19.45;10.77;;;3.00;99.90;;;;;;5051817;28;20028;-68
2021/03/02 02:21:14;;;;;;;19.48;9.25;;;3.00;99.90;;;;;;5052370;28;20074;-68
2021/03/02 02:23:59;;;;;;;13.73;10.13;;;2.90;99.90;;;;;;5051999;28;20024;-69
2021/03/02 02:26:48;;;;;;;17.75;9.75;;;3.00;99.90;;;;;;5052219;28;20028;-68
2021/03/02 02:29:18;;;;;;;18.77;10.88;;;2.90;99.90;;;;;;5052285;28;20068;-69
2021/03/02 02:31:46;;;;;;;18.02;11.15;;;2.90;99.90;;;;;;5052661;28;20060;-69
2021/03/02 02:34:14;;;;;;;12.80;10.80;;;2.80;99.90;;;;;;5051882;28;20029;-69
2021/03/02 02:36:40;;;;;;;16.67;10.68;;;2.80;99.90;;;;;;5051660;28;20040;-69
2021/03/02 02:39:06;;;;;;;16.70;11.23;;;2.80;99.90;;;;;;5052215;28;20105;-69
2021/03/02 02:41:33;;;;;;;14.63;11.10;;;2.80;99.90;;;;;;5052008;28;20497;-68
2021/03/02 02:44:00;;;;;;;17.83;11.77;;;2.80;99.90;;;;;;5052060;28;20082;-69
2021/03/02 02:46:26;;;;;;;15.07;10.82;;;2.80;99.90;;;;;;5051851;28;20025;-69
2021/03/02 02:48:55;;;;;;;16.63;11.18;;;2.80;99.90;;;;;;5051055;28;20048;-69
2021/03/02 02:51:21;;;;;;;17.17;11.48;;;2.70;99.90;;;;;;5052498;28;20025;-68
2021/03/02 02:53:47;;;;;;;14.75;11.70;;;2.70;99.90;;;;;;5051943;28;20480;-69
2021/03/02 02:56:15;;;;;;;13.48;10.68;;;2.70;99.90;;;;;;5052356;28;20435;-68
2021/03/02 02:58:43;;;;;;;19.83;11.48;;;2.70;99.90;;;;;;5051892;28;20159;-69
2021/03/02 03:01:12;;;;;;;18.80;11.27;;;2.70;99.90;;;;;;5051793;28;20155;-69
2021/03/02 03:03:43;;;;;;;18.95;11.93;;;2.60;99.90;;;;;;5051716;28;20056;-68
2021/03/02 03:06:12;;;;;;;14.90;10.57;;;2.60;99.90;;;;;;5051794;28;20118;-69
2021/03/02 03:08:42;;;;;;;15.60;11.73;;;2.60;99.90;;;;;;5051654;28;20079;-69
2021/03/02 03:11:10;;;;;;;16.38;11.05;;;2.60;99.90;;;;;;5051736;28;20063;-69
2021/03/02 03:13:42;;;;;;;17.00;10.32;;;2.50;99.90;;;;;;5051782;28;20029;-69
2021/03/02 03:16:09;;;;;;;14.85;10.93;;;2.50;99.90;;;;;;5060519;28;20040;-70
2021/03/02 03:18:49;;;;;;;21.67;12.70;;;2.50;99.90;;;;;;5063826;28;20028;-69
2021/03/02 03:21:15;;;;;;;19.52;13.73;;;2.60;99.90;;;;;;5063691;28;20052;-68
2021/03/02 03:23:42;;;;;;;17.95;12.05;;;2.50;99.90;;;;;;5056600;28;20029;-70
2021/03/02 03:26:10;;;;;;;19.88;13.40;;;2.50;99.90;;;;;;5056079;28;20059;-68
2021/03/02 03:28:37;;;;;;;18.17;11.80;;;2.40;99.90;;;;;;5059079;28;20040;-69
2021/03/02 03:31:03;;;;;;;17.13;11.52;;;2.30;99.90;;;;;;5060990;28;20071;-68
2021/03/02 03:33:31;;;;;;;19.67;12.75;;;2.30;99.90;;;;;;5062622;28;20104;-69
2021/03/02 03:35:57;;;;;;;20.80;11.70;;;2.40;99.90;;;;;;5062506;28;20025;-69
2021/03/02 03:38:22;;;;;;;18.50;11.57;;;2.40;99.90;;;;;;5052336;28;20048;-69
2021/03/02 03:40:48;;;;;;;13.82;11.02;;;2.40;99.90;;;;;;5051646;28;20048;-69
2021/03/02 03:43:14;;;;;;;15.60;11.50;;;2.40;99.90;;;;;;5051239;28;20018;-68
2021/03/02 03:45:39;;;;;;;16.58;12.07;;;2.30;99.90;;;;;;5051243;28;20100;-69
2021/03/02 03:48:06;;;;;;;15.88;12.15;;;2.40;99.90;;;;;;5049961;28;20021;-69
2021/03/02 03:50:31;;;;;;;16.20;11.25;;;2.40;99.90;;;;;;5054260;28;20032;-68
2021/03/02 03:53:00;;;;;;;18.27;11.55;;;2.30;99.90;;;;;;5057969;28;20031;-69
2021/03/02 03:55:30;;;;;;;15.25;11.75;;;2.30;99.90;;;;;;5058557;28;20088;-69
2021/03/02 03:57:57;;;;;;;16.02;12.48;;;2.30;99.90;;;;;;5059023;28;20025;-69
2021/03/02 04:00:23;;;;;;;14.40;11.82;;;2.20;99.90;;;;;;5055098;28;20049;-69
2021/03/02 04:02:50;;;;;;;16.45;11.63;;;2.20;99.90;;;;;;5054755;28;20025;-69
2021/03/02 04:05:17;;;;;;;15.75;11.73;;;2.20;99.90;;;;;;5055017;28;20201;-68
2021/03/02 04:07:45;;;;;;;19.85;12.35;;;2.20;99.90;;;;;;5054415;28;20055;-69
2021/03/02 04:10:11;;;;;;;12.52;10.77;;;2.30;99.90;;;;;;5054953;28;20112;-69
2021/03/02 04:12:38;;;;;;;19.02;11.52;;;2.20;99.90;;;;;;5053063;28;20118;-68
2021/03/02 04:15:15;;;;;;;17.45;12.45;;;2.20;99.90;;;;;;5054612;28;20029;-69
2021/03/02 04:17:52;;;;;;;19.75;12.90;;;2.20;99.90;;;;;;5054566;28;20021;-68
2021/03/02 04:20:18;;;;;;;17.50;14.07;;;2.20;99.90;;;;;;5054855;28;20040;-68
2021/03/02 04:22:44;;;;;;;16.83;12.73;;;2.10;99.90;;;;;;5054520;28;20025;-68
2021/03/02 04:25:10;;;;;;;17.63;12.68;;;2.20;99.90;;;;;;5053551;28;20135;-69
2021/03/02 04:27:36;;;;;;;17.92;12.90;;;2.20;99.90;;;;;;5055170;28;20025;-69
2021/03/02 04:30:02;;;;;;;20.48;13.13;;;2.20;99.90;;;;;;5054297;28;20504;-68
2021/03/02 04:32:28;;;;;;;21.90;12.95;;;2.10;99.90;;;;;;5054009;28;20511;-69
2021/03/02 04:34:53;;;;;;;16.02;12.70;;;2.00;99.90;;;;;;5054072;28;20140;-69
2021/03/02 04:37:19;;;;;;;18.73;13.50;;;2.10;99.90;;;;;;5053177;28;20060;-69
2021/03/02 04:39:44;;;;;;;19.88;13.45;;;2.00;99.90;;;;;;5053400;28;20021;-69
2021/03/02 04:42:10;;;;;;;20.83;11.68;;;2.00;99.90;;;;;;5054639;28;20021;-69
2021/03/02 04:44:35;;;;;;;16.55;11.98;;;2.00;99.90;;;;;;5054394;28;20392;-69
2021/03/02 04:47:01;;;;;;;18.52;13.48;;;2.00;99.90;;;;;;5054194;28;20078;-68
2021/03/02 04:49:27;;;;;;;17.08;12.82;;;2.00;99.90;;;;;;5052833;28;20335;-69
2021/03/02 04:51:52;;;;;;;14.85;12.27;;;1.90;99.90;;;;;;5053973;28;20029;-69
2021/03/02 04:54:18;;;;;;;19.75;13.32;;;1.90;99.90;;;;;;5053618;28;20025;-68
2021/03/02 04:56:44;;;;;;;20.52;13.32;;;1.90;99.90;;;;;;5052793;28;20083;-69
2021/03/02 04:59:09;;;;;;;21.23;14.85;;;1.90;99.90;;;;;;5053727;28;20071;-69
2021/03/02 05:01:35;;;;;;;23.38;13.98;;;1.80;99.90;;;;;;5053555;28;20051;-68
2021/03/02 05:04:01;;;;;;;19.80;13.27;;;1.80;99.90;;;;;;5054367;28;20615;-69
2021/03/02 05:06:27;;;;;;;17.83;12.48;;;1.90;99.90;;;;;;5054016;28;20028;-70
2021/03/02 05:08:53;;;;;;;23.83;13.63;;;1.90;99.90;;;;;;5053667;28;20025;-68
2021/03/02 05:11:18;;;;;;;19.63;13.98;;;1.90;99.90;;;;;;5053497;28;20116;-68
2021/03/02 05:13:45;;;;;;;18.42;12.15;;;1.80;99.90;;;;;;5053427;28;20028;-69
2021/03/02 05:16:11;;;;;;;21.05;13.00;;;1.80;99.90;;;;;;5053447;28;20032;-69
2021/03/02 05:18:37;;;;;;;18.08;13.00;;;1.80;99.90;;;;;;5052170;28;20124;-69
2021/03/02 05:21:03;;;;;;;20.25;13.77;;;1.70;99.90;;;;;;5053253;28;20021;-69
2021/03/02 05:23:28;;;;;;;23.23;13.38;;;1.70;99.90;;;;;;5053540;28;20096;-68
2021/03/02 05:25:54;;;;;;;20.85;13.23;;;1.70;99.90;;;;;;5053364;28;20526;-69
2021/03/02 05:28:19;;;;;;;15.63;11.70;;;1.70;99.90;;;;;;5053721;28;20028;-69
2021/03/02 05:30:45;;;;;;;20.92;12.23;;;1.70;99.90;;;;;;5052341;28;20044;-69
2021/03/02 05:33:11;;;;;;;22.80;13.82;;;1.60;99.90;;;;;;5051634;28;20021;-69
2021/03/02 05:35:36;;;;;;;27.45;15.55;;;1.70;99.90;;;;;;5053066;28;20045;-68
2021/03/02 05:38:02;;;;;;;18.02;12.25;;;1.70;99.90;;;;;;5053015;28;20021;-69
2021/03/02 05:40:27;;;;;;;21.45;12.60;;;1.70;99.90;;;;;;5052890;28;20056;-69
2021/03/02 05:42:53;;;;;;;21.02;14.18;;;1.70;99.90;;;;;;5053484;28;20053;-69
2021/03/02 05:45:19;;;;;;;21.58;12.65;;;1.70;99.90;;;;;;5052781;28;20051;-69
2021/03/02 05:47:45;;;;;;;29.27;13.52;;;1.60;99.90;;;;;;5052687;28;20538;-68
2021/03/02 05:50:13;;;;;;;24.38;13.57;;;1.60;99.90;;;;;;5053097;28;20025;-68
2021/03/02 05:52:39;;;;;;;21.88;14.30;;;1.60;99.90;;;;;;5052837;28;20028;-68
2021/03/02 05:55:07;;;;;;;23.35;12.82;;;1.60;99.90;;;;;;5052818;28;20033;-69
2021/03/02 05:57:33;;;;;;;20.95;13.05;;;1.70;99.90;;;;;;5052457;28;20025;-69
2021/03/02 06:00:00;;;;;;;23.15;13.77;;;1.80;99.90;;;;;;5052265;28;20100;-70
2021/03/02 06:02:26;;;;;;;31.83;15.63;;;1.80;99.90;;;;;;5053189;28;20017;-69
2021/03/02 06:04:51;;;;;;;21.15;12.85;;;1.80;99.90;;;;;;5052341;28;20052;-69
2021/03/02 06:07:17;;;;;;;27.00;13.57;;;1.80;99.90;;;;;;5052912;28;20569;-70
2021/03/02 06:09:44;;;;;;;17.38;13.00;;;1.70;99.90;;;;;;5051222;28;20032;-69
2021/03/02 06:12:10;;;;;;;29.00;14.02;;;1.80;99.90;;;;;;5051916;28;20051;-69
2021/03/02 06:14:36;;;;;;;25.42;14.60;;;1.70;99.90;;;;;;5052234;28;20033;-69
2021/03/02 06:17:03;;;;;;;24.13;14.43;;;1.70;99.90;;;;;;5052332;28;20108;-69
2021/03/02 06:19:46;;;;;;;23.27;13.82;;;1.70;99.90;;;;;;5052502;28;20024;-69
2021/03/02 06:22:34;;;;;;;31.83;13.45;;;2.10;99.90;;;;;;5052429;28;20040;-69
2021/03/02 06:25:02;;;;;;;18.35;12.73;;;2.00;99.90;;;;;;5052364;28;20036;-68
2021/03/02 06:27:30;;;;;;;26.45;12.38;;;2.00;99.90;;;;;;5052378;28;20033;-68
2021/03/02 06:30:10;;;;;;;27.02;13.38;;;2.00;99.90;;;;;;5052061;28;20017;-69
2021/03/02 06:32:40;;;;;;;24.30;12.93;;;2.00;99.90;;;;;;5052414;28;20031;-70
2021/03/02 06:35:10;;;;;;;20.08;12.98;;;2.10;99.90;;;;;;5052382;28;20375;-69
2021/03/02 06:37:47;;;;;;;22.38;13.05;;;2.00;99.90;;;;;;5051469;28;20025;-69
2021/03/02 06:40:14;;;;;;;28.77;12.55;;;2.00;99.90;;;;;;5052726;28;20025;-69
2021/03/02 06:42:41;;;;;;;18.55;12.68;;;2.20;99.90;;;;;;5053784;28;20043;-68
2021/03/02 06:45:14;;;;;;;23.55;12.35;;;2.20;99.90;;;;;;5053647;28;20021;-69
2021/03/02 06:47:43;;;;;;;18.23;11.68;;;2.20;99.90;;;;;;5052158;28;20033;-69
2021/03/02 06:50:12;;;;;;;15.93;11.85;;;2.30;99.90;;;;;;5052376;28;20032;-69
2021/03/02 06:52:43;;;;;;;18.02;11.55;;;2.40;99.90;;;;;;5051961;28;20037;-69
2021/03/02 06:55:14;;;;;;;25.38;11.95;;;2.40;99.90;;;;;;5051926;28;20567;-69
2021/03/02 06:57:40;;;;;;;34.85;13.30;;;2.60;99.90;;;;;;5051747;28;20066;-70
2021/03/02 07:00:07;;;;;;;26.20;12.90;;;2.70;99.90;;;;;;5051866;28;20096;-69
2021/03/02 07:02:42;;;;;;;15.13;11.15;;;2.90;99.90;;;;;;5052089;28;20025;-69
2021/03/02 07:05:11;;;;;;;18.70;10.82;;;3.10;99.90;;;;;;5051973;28;20067;-68
2021/03/02 07:07:45;;;;;;;17.20;11.63;;;3.30;99.90;;;;;;5052264;28;20025;-69
2021/03/02 07:10:12;;;;;;;21.55;11.50;;;3.30;99.90;;;;;;5052409;28;20113;-69
2021/03/02 07:12:40;;;;;;;15.43;11.05;;;3.20;99.90;;;;;;5052377;28;20481;-70
2021/03/02 07:15:08;;;;;;;17.60;12.07;;;3.40;99.90;;;;;;5052648;28;20029;-69
2021/03/02 07:17:36;;;;;;;19.75;12.10;;;3.50;99.90;;;;;;5052149;28;20021;-69
2021/03/02 07:20:04;;;;;;;18.17;11.88;;;3.60;99.90;;;;;;5055383;28;20092;-69
2021/03/02 07:22:32;;;;;;;24.08;12.70;;;3.70;99.90;;;;;;5052896;28;20112;-69
2021/03/02 07:25:01;;;;;;;24.95;12.63;;;3.70;99.90;;;;;;5055789;28;20025;-69
2021/03/02 07:27:29;;;;;;;27.58;12.10;;;3.90;99.90;;;;;;5056358;28;20025;-70
2021/03/02 07:29:59;;;;;;;22.30;12.82;;;4.00;99.90;;;;;;5060398;28;20047;-69
2021/03/02 07:32:25;;;;;;;25.45;13.55;;;4.00;99.90;;;;;;5065771;28;20035;-69
2021/03/02 07:34:52;;;;;;;19.40;12.45;;;4.00;99.90;;;;;;5064481;28;20029;-69
2021/03/02 07:37:21;;;;;;;29.13;13.27;;;3.90;99.90;;;;;;5059832;28;20025;-68
2021/03/02 07:40:11;;;;;;;21.17;12.75;;;3.90;99.90;;;;;;5055563;28;20021;-69
2021/03/02 07:42:37;;;;;;;20.75;13.43;;;4.20;99.90;;;;;;5056038;28;20044;-70
2021/03/02 07:45:16;;;;;;;23.85;13.20;;;4.40;99.90;;;;;;5056403;28;20025;-69
2021/03/02 07:47:58;;;;;;;32.85;14.25;;;4.50;99.90;;;;;;5056089;28;20349;-70
2021/03/02 07:50:26;;;;;;;20.95;13.38;;;4.50;99.90;;;;;;5055812;28;20096;-68
2021/03/02 07:53:13;;;;;;;23.15;15.00;;;4.60;99.90;;;;;;5055059;28;20025;-68
2021/03/02 07:55:39;;;;;;;23.00;13.48;;;4.70;99.90;;;;;;5055629;28;20083;-69
2021/03/02 07:58:18;;;;;;;20.98;14.15;;;4.70;99.90;;;;;;5055694;28;20037;-69
2021/03/02 08:00:48;;;;;;;22.88;13.85;;;4.60;99.90;;;;;;5055513;28;20029;-69
2021/03/02 08:03:33;;;;;;;26.70;16.08;;;4.80;99.90;;;;;;5055108;28;20021;-69
2021/03/02 08:06:26;;;;;;;20.13;12.45;;;5.00;99.90;;;;;;5055596;28;20025;-69
2021/03/02 08:08:52;;;;;;;19.50;13.40;;;5.10;99.90;;;;;;5051273;28;20048;-70
2021/03/02 08:11:47;;;;;;;24.83;14.02;;;5.30;99.90;;;;;;5055080;28;20496;-70
2021/03/02 08:14:16;;;;;;;19.25;14.38;;;5.50;99.90;;;;;;5037625;28;20048;-70
2021/03/02 08:17:04;;;;;;;24.90;14.20;;;5.50;97.00;;;;;;5053510;28;20025;-70
2021/03/02 08:19:34;;;;;;;27.02;14.18;;;5.60;99.90;;;;;;5055113;28;20021;-69
2021/03/02 08:22:01;;;;;;;20.48;12.60;;;5.60;99.90;;;;;;5054751;28;20060;-69
2021/03/02 08:24:54;;;;;;;22.40;14.82;;;5.80;97.50;;;;;;5054997;28;20029;-69
2021/03/02 08:27:39;;;;;;;20.60;14.05;;;6.00;86.10;;;;;;5054295;28;20025;-70
2021/03/02 08:30:10;;;;;;;21.15;11.75;;;6.20;65.00;;;;;;5058612;28;20508;-69
2021/03/02 08:32:37;;;;;;;23.95;15.35;;;6.30;54.50;;;;;;5058126;28;20086;-69
2021/03/02 08:35:18;;;;;;;21.55;13.32;;;6.40;47.80;;;;;;5056950;28;20108;-69
2021/03/02 08:37:51;;;;;;;18.65;14.32;;;6.50;22.30;;;;;;5061522;28;20453;-69
2021/03/02 08:40:23;;;;;;;30.00;15.30;;;6.70;20.60;;;;;;5056153;28;20427;-70
2021/03/02 08:43:09;;;;;;;22.02;13.60;;;6.80;13.60;;;;;;5055109;28;20051;-70
2021/03/02 08:45:43;;;;;;;16.20;12.20;;;6.90;1.00;;;;;;5054810;28;20025;-69
2021/03/02 08:48:23;;;;;;;17.98;12.65;;;6.80;7.30;;;;;;5054496;28;20040;-70
2021/03/02 08:50:54;;;;;;;24.85;13.80;;;6.80;1.20;;;;;;5054713;28;20078;-70
2021/03/02 08:53:26;;;;;;;;;;;6.90;1.00;;;;;;5054673;28;20025;-70
2021/03/02 08:55:52;;;;;;;21.40;12.32;;;6.80;39.60;;;;;;5054483;28;19909;-69
2021/03/02 08:58:31;;;;;;;19.88;13.70;;;6.90;32.10;;;;;;5054411;28;20094;-71
2021/03/02 09:01:02;;;;;;;24.58;13.48;;;7.10;23.50;;;;;;5054307;28;20100;-70
2021/03/02 09:03:28;;;;;;;19.98;13.38;;;7.30;1.00;;;;;;5054074;28;20028;-70
2021/03/02 09:06:09;;;;;;;18.60;12.80;;;7.60;1.00;;;;;;5053882;28;20484;-70
2021/03/02 09:08:49;;;;;;;21.10;13.30;;;7.80;1.00;;;;;;5053869;28;20033;-69
2021/03/02 09:11:16;;;;;;;16.67;12.70;;;7.90;1.00;;;;;;5053862;28;20037;-69
2021/03/02 09:13:43;;;;;;;18.23;13.95;;;7.70;1.00;;;;;;5053410;28;20497;-70
2021/03/02 09:16:27;;;;;;;20.58;14.27;;;7.90;1.00;;;;;;5053700;28;20408;-69
2021/03/02 09:19:18;;;;;;;20.20;13.45;;;8.00;1.00;;;;;;5053589;28;20025;-68
2021/03/02 09:21:49;;;;;;;21.52;14.65;;;8.00;1.00;;;;;;5053730;28;20025;-70
2021/03/02 09:24:17;;;;;;;22.00;14.98;;;8.00;1.00;;;;;;5052064;28;20400;-69
2021/03/02 09:27:04;;;;;;;26.23;13.65;;;8.10;1.00;;;;;;5053727;28;20021;-70
2021/03/02 09:29:35;;;;;;;34.65;15.35;;;8.20;1.00;;;;;;5053573;28;20405;-70
2021/03/02 09:32:03;;;;;;;;;;;8.30;1.00;;;;;;5052611;28;20488;-68
2021/03/02 09:34:38;;;;;;;16.38;12.30;;;8.40;1.00;;;;;;5054303;28;19966;-69
2021/03/02 09:37:13;;;;;;;21.55;15.18;;;8.50;1.00;;;;;;5055526;28;20028;-69
2021/03/02 09:39:42;;;;;;;24.25;15.93;;;8.50;1.00;;;;;;5053300;28;20364;-68
2021/03/02 09:42:16;;;;;;;20.85;14.18;;;8.60;1.00;;;;;;5053307;28;20032;-70
2021/03/02 09:44:52;;;;;;;19.73;14.57;;;8.60;1.00;;;;;;5054320;28;20020;-69
2021/03/02 09:47:23;;;;;;;17.58;13.55;;;8.70;1.00;;;;;;5057013;28;20032;-69
2021/03/02 09:49:55;;;;;;;;;;;8.80;99.90;;;;;;5053619;28;20067;-70
2021/03/02 09:52:20;;;;;;;;;;;9.00;99.90;;;;;;5053786;28;19926;-69
2021/03/02 09:55:08;;;;;;;17.60;13.35;;;9.10;99.90;;;;;;5052611;28;19909;-70
2021/03/02 09:57:53;;;;;;;22.98;14.25;;;9.20;99.90;;;;;;5053064;28;20083;-70
2021/03/02 10:00:32;;;;;;;20.95;14.68;;;9.40;99.90;;;;;;5053069;28;20024;-69
2021/03/02 10:03:04;;;;;;;21.05;13.93;;;9.50;99.90;;;;;;5053065;28;20104;-71
2021/03/02 10:05:31;;;;;;;22.48;13.50;;;9.60;99.90;;;;;;5053183;28;20040;-69
2021/03/02 10:07:57;;;;;;;20.40;14.32;;;9.80;99.90;;;;;;5051916;28;20112;-69
2021/03/02 10:10:39;;;;;;;23.08;14.48;;;9.80;99.90;;;;;;5053051;28;20064;-70
2021/03/02 10:13:05;;;;;;;20.83;14.55;;;9.90;99.90;;;;;;5052690;28;20040;-70
2021/03/02 10:15:32;;;;;;;16.02;13.35;;;10.10;99.90;;;;;;5052958;28;20171;-70
2021/03/02 10:18:03;;;;;;;33.45;14.05;;;10.20;5.60;;;;;;5053160;28;20190;-69
2021/03/02 10:20:29;;;;;;;22.23;13.48;;;10.20;99.90;;;;;;5053315;28;20021;-69
2021/03/02 10:23:04;;;;;;;17.05;13.55;;;10.50;30.60;;;;;;5052649;28;20033;-69
2021/03/02 10:25:42;;;;;;;27.00;13.50;;;10.70;1.00;;;;;;5075636;23;20413;-70
2021/03/02 10:28:08;;;;;;;19.27;13.50;;;10.80;99.90;;;;;;5014224;28;20054;-70
2021/03/02 10:30:34;;;;;;;19.85;14.65;;;10.80;99.90;;;;;;5019020;28;20049;-71
2021/03/02 10:32:59;;;;;;;21.98;16.02;;;10.80;99.90;;;;;;5013847;28;20030;-72
2021/03/02 10:35:25;;;;;;;20.48;13.20;;;10.90;99.90;;;;;;5016193;28;20481;-71
2021/03/02 10:37:51;;;;;;;17.13;13.75;;;11.00;99.90;;;;;;5014866;28;20037;-69
2021/03/02 10:40:16;;;;;;;19.48;14.32;;;11.10;99.90;;;;;;5014491;28;20030;-70
2021/03/02 10:42:42;;;;;;;21.15;13.68;;;11.10;99.90;;;;;;5014118;28;20117;-70
2021/03/02 10:45:08;;;;;;;20.90;13.65;;;11.30;98.80;;;;;;5015123;28;20033;-73
2021/03/02 10:47:37;;;;;;;16.15;13.50;;;11.30;1.00;;;;;;5018729;28;20105;-69
2021/03/02 10:50:03;;;;;;;18.35;14.02;;;11.50;99.90;;;;;;5021317;28;20030;-71
2021/03/02 10:52:32;;;;;;;19.85;13.88;;;11.40;1.00;;;;;;5020290;28;20417;-69
2021/03/02 10:54:57;;;;;;;17.10;13.20;;;11.50;99.90;;;;;;5018324;28;20030;-70
2021/03/02 10:57:23;;;;;;;17.55;12.90;;;11.70;96.10;;;;;;5020735;28;20028;-71
2021/03/02 10:59:50;;;;;;;18.08;13.68;;;11.80;1.00;;;;;;5030484;28;20026;-72
2021/03/02 11:02:15;;;;;;;18.70;13.13;;;12.00;99.90;;;;;;5034768;28;20083;-71
2021/03/02 11:04:41;;;;;;;31.90;14.30;;;12.10;99.90;;;;;;5024522;28;20062;-72
2021/03/02 11:07:07;;;;;;;19.55;13.25;;;12.20;99.90;;;;;;5022180;28;20097;-71
2021/03/02 11:09:32;;;;;;;17.10;13.20;;;12.30;99.90;;;;;;5022420;28;20026;-71
2021/03/02 11:11:58;;;;;;;15.77;12.35;;;12.20;1.00;;;;;;5020582;28;20107;-70
2021/03/02 11:14:23;;;;;;;18.58;13.40;;;12.30;1.00;;;;;;5019633;28;20040;-70
2021/03/02 11:16:49;;;;;;;18.75;13.07;;;12.30;99.90;;;;;;5018820;28;20018;-71
2021/03/02 11:19:16;;;;;;;22.38;12.93;;;12.40;1.00;;;;;;5022068;28;20481;-71
2021/03/02 11:21:41;;;;;;;17.45;13.55;;;12.50;99.90;;;;;;5020427;28;20026;-71
2021/03/02 11:24:07;;;;;;;21.55;13.70;;;12.70;99.90;;;;;;5019880;28;20025;-72
2021/03/02 11:26:33;;;;;;;17.17;13.52;;;12.70;99.90;;;;;;5018967;28;20119;-70
2021/03/02 11:28:59;;;;;;;15.45;12.95;;;12.80;1.00;;;;;;5018116;28;20380;-71
2021/03/02 11:31:24;;;;;;;17.30;12.75;;;12.70;99.00;;;;;;5018707;28;20054;-70
2021/03/02 11:33:50;;;;;;;20.02;13.52;;;12.90;99.90;;;;;;5019084;28;20037;-71
2021/03/02 11:36:18;;;;;;;17.80;12.88;;;13.00;99.90;;;;;;5022342;28;20036;-72
2021/03/02 11:38:44;;;;;;;17.70;12.13;;;13.20;99.90;;;;;;5021636;28;20105;-70
2021/03/02 11:41:09;;;;;;;17.25;12.85;;;13.10;1.00;;;;;;5021570;28;20080;-71
2021/03/02 11:43:35;;;;;;;16.95;12.93;;;13.20;99.90;;;;;;5020258;28;20030;-72
2021/03/02 11:46:01;;;;;;;16.58;12.25;;;13.40;99.90;;;;;;5026966;28;20025;-71
2021/03/02 11:48:27;;;;;;;15.18;12.52;;;13.30;99.90;;;;;;5022083;28;20042;-70
2021/03/02 11:50:53;;;;;;;19.00;12.30;;;13.40;10.20;;;;;;5023506;28;20045;-71
2021/03/02 11:53:18;;;;;;;20.75;12.25;;;13.60;99.90;;;;;;5018981;28;20032;-70
2021/03/02 11:55:44;;;;;;;16.33;13.02;;;13.60;99.90;;;;;;5018158;28;20034;-72
2021/03/02 11:58:09;;;;;;;19.00;12.82;;;13.60;1.00;;;;;;5020866;28;20401;-71
2021/03/02 12:00:38;;;;;;;17.83;12.52;;;13.70;73.80;;;;;;5016568;28;20026;-71
2021/03/02 12:03:03;;;;;;;14.98;12.05;;;13.60;5.60;;;;;;5016866;28;20172;-72
2021/03/02 12:05:29;;;;;;;15.43;12.90;;;13.80;1.00;;;;;;5016461;28;20511;-71
2021/03/02 12:07:56;;;;;;;16.13;11.90;;;13.60;1.00;;;;;;5016426;28;20037;-71
2021/03/02 12:10:22;;;;;;;17.05;12.45;;;13.70;1.00;;;;;;5014644;28;20081;-72
2021/03/02 12:12:48;;;;;;;19.95;12.40;;;13.80;1.00;;;;;;5016837;28;20057;-72
2021/03/02 12:15:15;;;;;;;20.63;12.77;;;14.00;99.90;;;;;;5016752;28;20433;-71
2021/03/02 12:17:41;;;;;;;13.65;11.52;;;14.10;85.40;;;;;;5016004;28;20034;-71
2021/03/02 12:20:09;;;;;;;17.55;12.05;;;14.20;1.00;;;;;;5018308;28;20428;-72
2021/03/02 12:22:35;;;;;;;16.23;11.48;;;14.20;1.00;;;;;;5019107;28;20022;-74
2021/03/02 12:25:02;;;;;;;13.93;10.85;;;14.20;1.00;;;;;;5018765;28;20084;-72
2021/03/02 12:27:27;;;;;;;15.35;12.05;;;14.30;99.90;;;;;;5021660;28;20026;-73
2021/03/02 12:29:53;;;;;;;15.38;10.20;;;14.30;99.90;;;;;;5020055;28;20044;-73
2021/03/02 12:32:19;;;;;;;16.05;10.20;;;14.20;99.90;;;;;;5022295;28;20029;-72
2021/03/02 12:34:44;;;;;;;15.15;11.15;;;14.20;99.90;;;;;;5021314;28;20030;-73
2021/03/02 12:37:10;;;;;;;16.77;10.85;;;14.50;99.90;;;;;;5023536;28;20018;-74
2021/03/02 12:39:36;;;;;;;15.70;10.70;;;14.50;99.90;;;;;;5022222;28;20022;-71
2021/03/02 12:42:02;;;;;;;14.07;9.52;;;14.50;99.90;;;;;;5024234;28;20097;-71
2021/03/02 12:44:28;;;;;;;16.65;10.48;;;14.50;99.90;;;;;;5017260;28;20457;-71
2021/03/02 12:46:53;;;;;;;15.82;10.18;;;14.40;99.90;;;;;;5016291;28;20034;-71